createdAt,value
2023-04-27T00:01:59.015Z,6.86
2023-04-27T00:07:00.926Z,6.79
2023-04-27T00:12:02.691Z,6.78
2023-04-27T00:17:04.296Z,6.73
2023-04-27T00:22:06.296Z,6.55
2023-04-27T00:27:07.889Z,6.26
2023-04-27T00:32:12.691Z,5.91
2023-04-27T00:37:14.244Z,5.67
2023-04-27T00:42:19.500Z,5.61
2023-04-27T00:47:21.771Z,5.56
2023-04-27T00:52:23.500Z,5.56
2023-04-27T00:57:25.273Z,5.57
2023-04-27T01:02:27.905Z,5.62
2023-04-27T01:07:29.678Z,5.57
2023-04-27T01:12:33.287Z,5.62
2023-04-27T01:17:35.054Z,5.74
2023-04-27T01:22:37.354Z,5.84
2023-04-27T01:27:38.939Z,5.79
2023-04-27T01:32:40.700Z,5.86
2023-04-27T01:37:42.469Z,5.87
2023-04-27T01:42:44.948Z,5.89
2023-04-27T01:47:46.581Z,5.76
2023-04-27T01:52:48.220Z,5.83
2023-04-27T01:57:49.851Z,5.91
2023-04-27T02:02:53.639Z,5.99
2023-04-27T02:07:55.692Z,6.05
2023-04-27T02:12:57.280Z,6.04
2023-04-27T02:17:58.850Z,6.06
2023-04-27T02:23:01.141Z,6.07
2023-04-27T02:28:02.875Z,6.11
2023-04-27T02:33:05.194Z,6.20
2023-04-27T02:38:06.854Z,6.13
2023-04-27T02:43:12.684Z,6.09
2023-04-27T02:48:14.469Z,6.11
2023-04-27T02:53:16.217Z,6.15
2023-04-27T02:58:17.886Z,6.15
2023-04-27T03:03:19.586Z,6.17
2023-04-27T03:08:21.224Z,6.15
2023-04-27T03:13:22.886Z,6.14
2023-04-27T03:18:24.422Z,6.21
2023-04-27T03:23:25.945Z,6.21
2023-04-27T03:28:27.843Z,6.22
2023-04-27T03:33:30.303Z,6.21
2023-04-27T03:38:32.107Z,6.07
2023-04-27T03:43:33.744Z,5.94
2023-04-27T03:48:37.510Z,5.88
2023-04-27T03:53:39.259Z,5.87
2023-04-27T03:58:42.452Z,5.86
2023-04-27T04:03:52.873Z,5.69
2023-04-27T04:08:55.495Z,5.64
2023-04-27T04:13:57.416Z,5.54
2023-04-27T04:18:59.053Z,5.50
2023-04-27T04:24:01.096Z,5.57
2023-04-27T04:29:03.736Z,5.59
2023-04-27T04:34:05.426Z,5.60
2023-04-27T04:39:09.406Z,5.56
2023-04-27T04:44:11.234Z,5.66
2023-04-27T04:49:13.169Z,5.75
2023-04-27T04:54:15.291Z,5.85
2023-04-27T04:59:17.063Z,5.84
2023-04-27T05:04:19.182Z,5.76
2023-04-27T05:09:20.830Z,5.84
2023-04-27T05:14:22.411Z,6.11
2023-04-27T05:19:25.271Z,6.30
2023-04-27T05:24:26.999Z,6.51
2023-04-27T05:29:28.586Z,6.70
2023-04-27T05:34:30.171Z,7.11
2023-04-27T05:39:31.842Z,7.24
2023-04-27T05:44:33.371Z,7.43
2023-04-27T05:49:34.941Z,7.87
2023-04-27T05:54:36.612Z,8.29
2023-04-27T05:59:38.507Z,8.43
2023-04-27T06:04:40.134Z,8.72
2023-04-27T06:09:43.102Z,8.98
2023-04-27T06:14:44.681Z,9.10
2023-04-27T06:19:46.471Z,9.43
2023-04-27T06:24:48.041Z,9.78
2023-04-27T06:29:49.589Z,10.10
2023-04-27T06:34:51.515Z,10.29
2023-04-27T06:39:53.313Z,10.46
2023-04-27T06:44:56.582Z,10.66
2023-04-27T06:49:58.310Z,11.01
2023-04-27T06:55:11.237Z,11.07
2023-04-27T07:00:13.683Z,11.09
2023-04-27T07:05:15.461Z,11.50
2023-04-27T07:10:17.082Z,12.01
2023-04-27T07:15:18.692Z,12.23
2023-04-27T07:20:24.049Z,12.42
2023-04-27T07:25:26.000Z,12.52
2023-04-27T07:30:30.737Z,12.43
2023-04-27T07:35:32.458Z,12.30
2023-04-27T07:40:34.546Z,12.23
2023-04-27T07:45:39.196Z,12.25
2023-04-27T07:50:40.912Z,11.97
2023-04-27T07:55:44.508Z,12.01
2023-04-27T08:00:46.585Z,12.01
2023-04-27T08:05:48.526Z,12.32
2023-04-27T08:10:50.772Z,12.50
2023-04-27T08:15:58.343Z,12.67
2023-04-27T08:21:00.308Z,12.68
2023-04-27T08:26:01.915Z,12.93
2023-04-27T08:31:03.473Z,13.15
2023-04-27T08:36:05.416Z,13.31
2023-04-27T08:41:20.319Z,13.38
2023-04-27T08:46:27.252Z,13.82
2023-04-27T08:51:29.052Z,14.39
2023-04-27T08:56:30.968Z,14.51
2023-04-27T09:01:35.399Z,14.55
2023-04-27T09:06:37.050Z,14.54
2023-04-27T09:11:39.690Z,14.65
2023-04-27T09:16:41.641Z,14.64
2023-04-27T09:21:43.581Z,14.62
2023-04-27T09:26:49.894Z,15.00
2023-04-27T09:31:51.553Z,14.86
2023-04-27T09:36:53.452Z,14.81
2023-04-27T09:42:00.291Z,14.98
2023-04-27T09:47:02.597Z,15.00
2023-04-27T09:52:04.352Z,14.99
2023-04-27T09:57:26.234Z,14.84
2023-04-27T10:02:31.515Z,14.92
2023-04-27T10:07:35.450Z,15.20
2023-04-27T10:12:37.128Z,15.27
2023-04-27T10:17:38.825Z,15.92
2023-04-27T10:22:48.088Z,16.58
2023-04-27T10:27:57.774Z,17.05
2023-04-27T10:33:05.314Z,17.65
2023-04-27T10:38:16.640Z,18.23
2023-04-27T10:43:18.278Z,18.57
2023-04-27T10:48:19.929Z,18.06
2023-04-27T10:53:21.574Z,17.20
2023-04-27T10:58:23.782Z,17.15
2023-04-27T11:03:25.931Z,17.16
2023-04-27T11:08:27.575Z,17.21
2023-04-27T11:13:29.217Z,17.23
2023-04-27T11:18:31.941Z,17.59
2023-04-27T11:23:38.139Z,17.80
2023-04-27T11:28:39.763Z,17.95
2023-04-27T11:33:48.475Z,18.68
2023-04-27T11:38:50.247Z,19.15
2023-04-27T11:43:52.153Z,18.40
2023-04-27T11:49:00.980Z,18.34
2023-04-27T11:54:06.826Z,18.44
2023-04-27T11:59:27.636Z,18.83
2023-04-27T12:04:29.471Z,18.74
2023-04-27T12:09:31.149Z,18.93
2023-04-27T12:14:32.722Z,19.17
2023-04-27T12:19:34.287Z,19.24
2023-04-27T12:24:37.088Z,19.57
2023-04-27T12:29:39.137Z,20.12
2023-04-27T12:34:42.838Z,20.31
2023-04-27T12:39:44.869Z,20.10
2023-04-27T12:44:46.570Z,19.42
2023-04-27T12:49:48.141Z,19.26
2023-04-27T12:54:51.240Z,19.17
2023-04-27T12:59:52.865Z,18.98
2023-04-27T13:04:55.464Z,18.77
2023-04-27T13:09:57.197Z,18.87
2023-04-27T13:14:58.742Z,18.70
2023-04-27T13:20:00.636Z,18.52
2023-04-27T13:25:02.283Z,18.43
2023-04-27T13:30:05.403Z,18.81
2023-04-27T13:35:07.802Z,19.17
2023-04-27T13:40:12.989Z,19.62
2023-04-27T13:45:14.943Z,20.09
2023-04-27T13:50:17.840Z,19.86
2023-04-27T13:55:19.483Z,19.70
2023-04-27T14:00:21.601Z,19.82
2023-04-27T14:05:23.171Z,20.19
2023-04-27T14:10:24.732Z,20.46
2023-04-27T14:15:26.309Z,20.99
2023-04-27T14:20:28.081Z,21.37
2023-04-27T14:25:32.821Z,21.17
2023-04-27T14:30:35.432Z,21.06
2023-04-27T14:35:37.247Z,20.84
2023-04-27T14:40:38.876Z,20.69
2023-04-27T14:45:50.831Z,20.56
2023-04-27T14:50:55.671Z,20.34
2023-04-27T14:55:57.359Z,19.99
2023-04-27T15:01:01.146Z,19.88
2023-04-27T15:06:03.262Z,19.75
2023-04-27T15:11:05.140Z,19.48
2023-04-27T15:16:07.355Z,19.50
2023-04-27T15:21:09.066Z,19.55
2023-04-27T15:26:10.699Z,19.47
2023-04-27T15:31:12.452Z,19.58
2023-04-27T15:36:14.001Z,19.77
2023-04-27T15:41:15.748Z,19.74
2023-04-27T15:46:18.221Z,19.62
2023-04-27T15:51:19.951Z,19.56
2023-04-27T15:56:22.057Z,19.36
2023-04-27T16:01:23.664Z,18.96
2023-04-27T16:06:35.163Z,18.68
2023-04-27T16:11:37.013Z,18.60
2023-04-27T16:16:39.026Z,18.53
2023-04-27T16:21:40.751Z,18.20
2023-04-27T16:26:42.295Z,17.88
2023-04-27T16:31:44.795Z,17.81
2023-04-27T16:36:48.444Z,17.49
2023-04-27T16:41:50.044Z,17.22
2023-04-27T16:46:52.031Z,17.24
2023-04-27T16:51:54.429Z,17.12
2023-04-27T16:56:56.088Z,16.94
2023-04-27T17:02:03.756Z,16.97
2023-04-27T17:07:11.323Z,16.97
2023-04-27T17:12:14.661Z,16.87
2023-04-27T17:17:16.483Z,16.71
2023-04-27T17:22:18.245Z,16.67
2023-04-27T17:27:19.794Z,16.57
2023-04-27T17:32:21.758Z,16.37
2023-04-27T17:37:23.479Z,16.26
2023-04-27T17:42:25.054Z,16.23
2023-04-27T17:47:26.814Z,16.11
2023-04-27T17:52:28.362Z,15.95
2023-04-27T17:57:29.900Z,15.75
2023-04-27T18:02:31.558Z,15.60
2023-04-27T18:07:36.983Z,15.31
2023-04-27T18:12:38.766Z,15.05
2023-04-27T18:17:40.337Z,14.81
2023-04-27T18:22:41.998Z,14.60
2023-04-27T18:27:45.184Z,14.27
2023-04-27T18:32:46.762Z,13.94
2023-04-27T18:37:53.621Z,13.74
2023-04-27T18:42:55.168Z,13.57
2023-04-27T18:47:56.828Z,13.29
2023-04-27T18:52:58.992Z,13.08
2023-04-27T18:58:00.560Z,12.89
2023-04-27T19:03:02.439Z,12.73
2023-04-27T19:08:04.105Z,12.62
2023-04-27T19:13:05.653Z,12.49
2023-04-27T19:18:10.818Z,12.52
2023-04-27T19:23:13.608Z,12.46
2023-04-27T19:28:19.176Z,12.36
2023-04-27T19:33:21.637Z,12.27
2023-04-27T19:38:25.170Z,12.12
2023-04-27T19:43:26.742Z,12.04
2023-04-27T19:48:28.262Z,12.01
2023-04-27T19:53:35.926Z,11.61
2023-04-27T19:58:37.470Z,11.60
2023-04-27T20:03:40.141Z,11.45
2023-04-27T20:08:42.114Z,11.55
2023-04-27T20:13:43.688Z,11.59
2023-04-27T20:18:45.319Z,11.68
2023-04-27T20:23:50.298Z,11.76
2023-04-27T20:28:52.167Z,11.77
2023-04-27T20:33:53.863Z,11.85
2023-04-27T20:38:57.557Z,11.82
2023-04-27T20:44:00.347Z,11.96
2023-04-27T20:49:02.561Z,12.06
2023-04-27T20:54:04.383Z,12.07
2023-04-27T20:59:07.306Z,12.13
2023-04-27T21:04:09.675Z,12.28
2023-04-27T21:09:11.254Z,12.39
2023-04-27T21:14:12.849Z,12.44
2023-04-27T21:19:16.315Z,12.48
2023-04-27T21:24:19.214Z,12.61
2023-04-27T21:29:21.174Z,12.65
2023-04-27T21:34:22.701Z,12.56
2023-04-27T21:39:24.368Z,12.46
2023-04-27T21:44:26.067Z,12.56
2023-04-27T21:49:27.727Z,12.62
2023-04-27T21:54:31.417Z,12.56
2023-04-27T21:59:33.036Z,12.66
2023-04-27T22:04:39.165Z,12.72
2023-04-27T22:09:41.520Z,12.61
2023-04-27T22:14:43.113Z,12.49
2023-04-27T22:19:44.767Z,12.39
2023-04-27T22:24:47.930Z,12.46
2023-04-27T22:29:49.591Z,12.52
2023-04-27T22:34:51.454Z,12.35
2023-04-27T22:39:53.128Z,12.26
2023-04-27T22:44:54.677Z,12.21
2023-04-27T22:49:56.233Z,12.22
2023-04-27T22:54:57.772Z,12.30
2023-04-27T22:59:59.357Z,12.20
2023-04-27T23:05:00.967Z,12.14
2023-04-27T23:10:03.131Z,12.09
2023-04-27T23:15:05.264Z,12.12
2023-04-27T23:20:17.273Z,12.14
2023-04-27T23:25:28.594Z,12.16
2023-04-27T23:30:30.908Z,12.08
2023-04-27T23:35:32.480Z,12.03
2023-04-27T23:40:34.160Z,12.03
2023-04-27T23:45:35.704Z,11.91
2023-04-27T23:50:37.193Z,11.74
2023-04-27T23:55:38.885Z,11.76
